Terminal Aerodrome Forecast
Issued by NWS Mt. Holly, NJ

Home | Current Version | Previous Version | Text Only | Print | Product List | Glossary On
Versions: 1 2 3 4 5 6 7 8 9 10 11 12 13 14
000
FTUS41 KPHI 191400 AAA
TAFILG
TAF AMD
KILG 191454Z 1915/2012 05014G22KT P6SM SCT025
     FM191530 07014KT P6SM BKN025
     FM191800 11011KT P6SM SCT025 BKN035
     FM200300 12007KT P6SM BKN040
     FM200800 14004KT P6SM OVC025=

USA.gov is the U.S. government's official web portal to all federal, state and local government web resources and services.